createdAt,value
2023-05-19T00:02:53.776Z,8.25
2023-05-19T00:08:03.051Z,8.23
2023-05-19T00:13:11.381Z,8.37
2023-05-19T00:18:19.363Z,8.33
2023-05-19T00:23:27.440Z,8.20
2023-05-19T00:28:35.742Z,8.11
2023-05-19T00:33:43.761Z,8.18
2023-05-19T00:38:52.364Z,8.35
2023-05-19T00:44:00.904Z,8.39
2023-05-19T00:49:09.303Z,8.25
2023-05-19T00:54:17.399Z,8.06
2023-05-19T00:59:25.481Z,7.95
2023-05-19T01:04:35.106Z,7.91
2023-05-19T01:09:43.214Z,7.98
2023-05-19T01:14:51.339Z,7.93
2023-05-19T01:20:18.456Z,7.77
2023-05-19T01:25:44.622Z,7.62
2023-05-19T01:30:56.619Z,7.68
2023-05-19T01:36:08.775Z,7.75
2023-05-19T01:41:17.667Z,7.67
2023-05-19T01:46:26.125Z,7.53
2023-05-19T01:51:34.408Z,7.43
2023-05-19T01:56:59.393Z,7.29
2023-05-19T02:02:17.425Z,7.42
2023-05-19T02:07:33.319Z,7.49
2023-05-19T02:12:42.404Z,7.37
2023-05-19T02:17:54.507Z,7.22
2023-05-19T02:23:02.512Z,7.05
2023-05-19T02:28:10.517Z,6.92
2023-05-19T02:33:19.533Z,7.05
2023-05-19T02:38:27.665Z,7.15
2023-05-19T02:43:35.821Z,7.18
2023-05-19T02:48:43.929Z,7.08
2023-05-19T02:53:52.164Z,7.05
2023-05-19T02:59:00.271Z,7.08
2023-05-19T03:04:08.353Z,7.17
2023-05-19T03:09:16.724Z,7.17
2023-05-19T03:14:25.269Z,7.02
2023-05-19T03:19:33.791Z,7.07
2023-05-19T03:24:42.443Z,7.21
2023-05-19T03:29:51.061Z,7.36
2023-05-19T03:34:59.173Z,7.33
2023-05-19T03:40:09.569Z,7.27
2023-05-19T03:45:17.733Z,7.26
2023-05-19T03:50:29.248Z,7.49
2023-05-19T03:55:37.651Z,7.58
2023-05-19T04:00:45.869Z,7.57
2023-05-19T04:05:54.196Z,7.76
2023-05-19T04:11:02.321Z,8.10
2023-05-19T04:16:11.367Z,8.55
2023-05-19T04:21:19.427Z,8.83
2023-05-19T04:26:30.977Z,8.92
2023-05-19T04:31:41.144Z,9.12
2023-05-19T04:36:51.656Z,9.38
2023-05-19T04:42:02.798Z,9.72
2023-05-19T04:47:12.189Z,10.17
2023-05-19T04:52:21.978Z,10.44
2023-05-19T04:57:29.968Z,10.47
2023-05-19T05:02:38.223Z,10.53
2023-05-19T05:07:46.752Z,10.66
2023-05-19T05:12:56.011Z,10.81
2023-05-19T05:18:05.067Z,10.97
2023-05-19T05:23:15.420Z,11.16
2023-05-19T05:28:23.624Z,11.39
2023-05-19T05:33:31.640Z,11.50
2023-05-19T05:38:39.647Z,11.63
2023-05-19T05:43:47.618Z,11.84
2023-05-19T05:48:56.661Z,12.10
2023-05-19T05:54:07.409Z,12.28
2023-05-19T05:59:15.836Z,12.45
2023-05-19T06:04:25.781Z,12.71
2023-05-19T06:09:34.183Z,12.97
2023-05-19T06:14:42.173Z,13.18
2023-05-19T06:19:50.097Z,13.25
2023-05-19T06:24:58.290Z,13.31
2023-05-19T06:30:08.860Z,13.31
2023-05-19T06:35:17.052Z,13.19
2023-05-19T06:40:25.107Z,13.12
2023-05-19T06:45:33.241Z,13.05
2023-05-19T06:50:41.266Z,12.99
2023-05-19T06:55:58.859Z,13.42
2023-05-19T07:01:08.320Z,13.76
2023-05-19T07:06:16.465Z,13.89
2023-05-19T07:11:24.471Z,13.84
2023-05-19T07:16:32.577Z,13.89
2023-05-19T07:21:40.591Z,13.97
2023-05-19T07:26:48.659Z,14.05
2023-05-19T07:31:58.235Z,14.03
2023-05-19T07:37:06.755Z,14.20
2023-05-19T07:42:14.931Z,14.22
2023-05-19T07:47:23.080Z,14.19
2023-05-19T07:52:31.517Z,14.30
2023-05-19T07:57:39.485Z,14.50
2023-05-19T08:02:47.660Z,14.78
2023-05-19T08:07:55.857Z,14.96
2023-05-19T08:13:03.851Z,15.07
2023-05-19T08:18:11.953Z,15.06
2023-05-19T08:23:20.156Z,15.02
2023-05-19T08:28:30.396Z,15.02
2023-05-19T08:33:38.411Z,15.22
2023-05-19T08:38:46.455Z,15.59
2023-05-19T08:43:54.688Z,15.85
2023-05-19T08:49:11.513Z,16.08
2023-05-19T08:54:20.890Z,16.15
2023-05-19T08:59:30.344Z,16.54
2023-05-19T09:04:40.076Z,16.94
2023-05-19T09:09:48.240Z,16.78
2023-05-19T09:14:56.784Z,16.88
2023-05-19T09:20:11.038Z,17.17
2023-05-19T09:25:23.399Z,16.93
2023-05-19T09:30:31.944Z,16.71
2023-05-19T09:35:39.983Z,16.47
2023-05-19T09:40:49.943Z,16.34
2023-05-19T09:46:04.827Z,16.27
2023-05-19T09:51:13.312Z,16.24
2023-05-19T09:56:23.921Z,16.22
2023-05-19T10:01:33.890Z,16.08
2023-05-19T10:06:42.661Z,15.65
2023-05-19T10:11:51.305Z,15.30
2023-05-19T10:17:00.488Z,14.91
2023-05-19T10:22:08.800Z,14.99
2023-05-19T10:27:18.231Z,14.83
2023-05-19T10:32:32.241Z,14.75
2023-05-19T10:37:47.652Z,14.84
2023-05-19T10:43:09.171Z,14.80
2023-05-19T10:48:23.185Z,14.72
2023-05-19T10:53:35.207Z,14.82
2023-05-19T10:58:52.278Z,15.04
2023-05-19T11:04:06.135Z,15.18
2023-05-19T11:09:15.959Z,15.48
2023-05-19T11:14:27.451Z,15.71
2023-05-19T11:19:37.325Z,15.88
2023-05-19T11:24:50.182Z,16.07
2023-05-19T11:30:00.410Z,16.15
2023-05-19T11:35:10.388Z,16.22
2023-05-19T11:40:19.215Z,16.67
2023-05-19T11:45:28.964Z,16.77
2023-05-19T11:50:38.497Z,16.88
2023-05-19T11:55:49.227Z,16.53
2023-05-19T12:00:58.088Z,16.48
2023-05-19T12:06:08.542Z,16.28
2023-05-19T12:11:18.234Z,16.59
2023-05-19T12:16:33.753Z,16.53
2023-05-19T12:21:42.340Z,16.20
2023-05-19T12:26:50.554Z,15.95
2023-05-19T12:31:59.010Z,15.47
2023-05-19T12:37:07.316Z,15.15
2023-05-19T12:42:16.681Z,14.93
2023-05-19T12:47:30.907Z,14.83
2023-05-19T12:52:48.242Z,14.83
2023-05-19T12:57:58.322Z,14.81
2023-05-19T13:03:08.683Z,14.84
2023-05-19T13:08:18.254Z,14.75
2023-05-19T13:13:26.322Z,14.40
2023-05-19T13:18:36.332Z,14.40
2023-05-19T13:23:44.374Z,14.48
2023-05-19T13:28:52.389Z,14.59
2023-05-19T13:34:00.407Z,14.60
2023-05-19T13:39:08.424Z,14.62
2023-05-19T13:44:16.859Z,14.52
2023-05-19T13:49:24.905Z,14.65
2023-05-19T13:54:33.937Z,14.75
2023-05-19T13:59:57.291Z,14.86
2023-05-19T14:05:22.510Z,15.06
2023-05-19T14:10:36.423Z,15.08
2023-05-19T14:16:19.121Z,15.07
2023-05-19T14:21:32.764Z,15.05
2023-05-19T14:26:41.836Z,14.95
2023-05-19T14:31:49.953Z,14.83
2023-05-19T14:36:58.106Z,14.74
2023-05-19T14:42:06.490Z,14.71
2023-05-19T14:47:14.530Z,14.71
2023-05-19T14:52:22.779Z,14.59
2023-05-19T14:57:31.051Z,14.52
2023-05-19T15:02:39.112Z,14.43
2023-05-19T15:07:48.329Z,14.43
2023-05-19T15:12:57.613Z,14.36
2023-05-19T15:18:05.618Z,14.28
2023-05-19T15:23:13.758Z,14.09
2023-05-19T15:28:21.909Z,13.92
2023-05-19T15:33:29.938Z,13.81
2023-05-19T15:38:39.121Z,13.80
2023-05-19T15:43:47.458Z,13.89
2023-05-19T15:48:55.764Z,13.91
2023-05-19T15:54:03.760Z,13.92
2023-05-19T15:59:12.163Z,13.88
2023-05-19T16:04:20.178Z,13.83
2023-05-19T16:09:28.232Z,13.76
2023-05-19T16:14:36.967Z,13.75
2023-05-19T16:19:45.206Z,13.79
2023-05-19T16:24:53.342Z,13.82
2023-05-19T16:30:02.872Z,13.78
2023-05-19T16:35:12.064Z,13.76
2023-05-19T16:40:20.879Z,13.85
2023-05-19T16:45:28.875Z,13.81
2023-05-19T16:50:37.680Z,13.75
2023-05-19T16:55:46.078Z,13.63
2023-05-19T17:00:56.313Z,13.57
2023-05-19T17:06:04.406Z,13.59
2023-05-19T17:11:13.570Z,13.60
2023-05-19T17:16:21.571Z,13.54
2023-05-19T17:21:30.260Z,13.43
2023-05-19T17:26:38.331Z,13.50
2023-05-19T17:31:46.431Z,13.44
2023-05-19T17:36:54.541Z,13.43
2023-05-19T17:42:02.802Z,13.32
2023-05-19T17:47:11.384Z,13.23
2023-05-19T17:52:20.657Z,13.17
2023-05-19T17:57:31.889Z,13.19
2023-05-19T18:03:14.013Z,13.27
2023-05-19T18:08:23.992Z,13.24
2023-05-19T18:13:32.097Z,13.16
2023-05-19T18:18:43.664Z,13.08
2023-05-19T18:23:51.977Z,12.98
2023-05-19T18:29:02.825Z,13.02
2023-05-19T18:34:11.014Z,13.16
2023-05-19T18:39:19.119Z,13.14
2023-05-19T18:44:27.381Z,13.03
2023-05-19T18:49:35.575Z,12.95
2023-05-19T18:54:46.010Z,12.87
2023-05-19T18:59:54.019Z,12.90
2023-05-19T19:05:04.085Z,12.93
2023-05-19T19:10:13.125Z,12.97
2023-05-19T19:15:21.577Z,12.96
2023-05-19T19:20:29.868Z,12.90
2023-05-19T19:25:37.963Z,12.84
2023-05-19T19:30:47.747Z,12.84
2023-05-19T19:35:55.871Z,12.92
2023-05-19T19:41:04.107Z,12.95
2023-05-19T19:46:12.356Z,12.90
2023-05-19T19:51:20.732Z,12.82
2023-05-19T19:56:28.889Z,12.87
2023-05-19T20:01:37.177Z,12.91
2023-05-19T20:06:45.236Z,12.88
2023-05-19T20:11:53.259Z,12.77
2023-05-19T20:17:01.349Z,12.74
2023-05-19T20:22:09.495Z,12.78
2023-05-19T20:27:17.550Z,12.91
2023-05-19T20:32:25.685Z,12.89
2023-05-19T20:37:33.734Z,12.84
2023-05-19T20:42:42.193Z,12.77
2023-05-19T20:47:50.215Z,12.78
2023-05-19T20:52:58.269Z,12.83
2023-05-19T20:58:06.377Z,12.83
2023-05-19T21:03:14.603Z,12.73
2023-05-19T21:08:22.675Z,12.66
2023-05-19T21:13:30.731Z,12.64
2023-05-19T21:18:38.813Z,12.73
2023-05-19T21:23:46.872Z,12.72
2023-05-19T21:28:54.958Z,12.62
2023-05-19T21:34:03.155Z,12.53
2023-05-19T21:39:11.170Z,12.55
2023-05-19T21:44:19.286Z,12.62
2023-05-19T21:49:27.317Z,12.62
2023-05-19T21:54:36.199Z,12.49
2023-05-19T21:59:45.054Z,12.47
2023-05-19T22:04:53.405Z,12.56
2023-05-19T22:10:01.796Z,12.72
2023-05-19T22:15:13.374Z,12.76
2023-05-19T22:20:21.664Z,12.64
2023-05-19T22:25:30.162Z,12.60
2023-05-19T22:30:40.870Z,12.65
2023-05-19T22:35:49.285Z,12.75
2023-05-19T22:40:57.347Z,12.72
2023-05-19T22:46:05.671Z,12.64
2023-05-19T22:51:14.070Z,12.56
2023-05-19T22:56:22.736Z,12.62
2023-05-19T23:01:31.065Z,12.66
2023-05-19T23:06:39.051Z,12.61
2023-05-19T23:11:47.431Z,12.49
2023-05-19T23:16:55.634Z,12.52
2023-05-19T23:22:03.877Z,12.62
2023-05-19T23:27:12.169Z,12.60
2023-05-19T23:32:44.042Z,12.55
2023-05-19T23:37:55.966Z,12.54
2023-05-19T23:43:03.958Z,12.58
2023-05-19T23:48:12.446Z,12.62
2023-05-19T23:53:20.526Z,12.53
2023-05-19T23:58:28.505Z,12.44
